Time;durP1;ratioP1;P1;durP2;ratioP2;P2;SDS_P1;SDS_P2;PMS_P1;PMS_P2;Temp;Humidity;BMP_temperature;BMP_pressure;BME280_temperature;BME280_humidity;BME280_pressure;Samples;Min_cycle;Max_cycle;Signal;HPM_P1;HPM_P2
2024/01/17 00:03:19;;;;;;;68.15;54.47;;;;;;;;;;10185379;28;20072;-73
2024/01/17 00:08:12;;;;;;;68.43;52.83;;;;;;;;;;10186110;28;20036;-73
2024/01/17 00:13:04;;;;;;;69.90;54.35;;;;;;;;;;10186308;28;20124;-73
2024/01/17 00:17:56;;;;;;;65.68;49.00;;;;;;;;;;10185294;28;20048;-73
2024/01/17 00:22:49;;;;;;;67.45;50.65;;;;;;;;;;10184563;28;20044;-73
2024/01/17 00:27:41;;;;;;;66.40;52.38;;;;;;;;;;10185187;28;20385;-73
2024/01/17 00:32:34;;;;;;;67.57;51.38;;;;;;;;;;10184579;28;20417;-73
2024/01/17 00:37:26;;;;;;;68.68;49.97;;;;;;;;;;10184194;28;20462;-73
2024/01/17 00:42:18;;;;;;;71.25;51.45;;;;;;;;;;10184908;28;20075;-73
2024/01/17 00:47:10;;;;;;;63.88;48.05;;;;;;;;;;10183863;28;20389;-73
2024/01/17 00:52:02;;;;;;;62.60;47.75;;;;;;;;;;10182819;28;20044;-73
2024/01/17 00:56:54;;;;;;;66.07;46.00;;;;;;;;;;10184271;28;20124;-73
2024/01/17 01:01:46;;;;;;;58.78;45.17;;;;;;;;;;10183858;28;20481;-73
2024/01/17 01:06:38;;;;;;;58.50;46.08;;;;;;;;;;10182928;28;20044;-73
2024/01/17 01:11:30;;;;;;;60.53;44.22;;;;;;;;;;10183554;28;20379;-72
2024/01/17 01:16:22;;;;;;;67.63;48.97;;;;;;;;;;10183347;28;20126;-73
2024/01/17 01:21:15;;;;;;;64.15;47.67;;;;;;;;;;10183096;28;20055;-73
2024/01/17 01:26:07;;;;;;;62.65;48.25;;;;;;;;;;10182513;28;20097;-74
2024/01/17 01:30:58;;;;;;;65.45;48.75;;;;;;;;;;10182487;28;20491;-73
2024/01/17 01:35:50;;;;;;;65.05;49.63;;;;;;;;;;10187182;28;20044;-74
2024/01/17 01:40:42;;;;;;;59.10;48.88;;;;;;;;;;10170872;28;20087;-74
2024/01/17 01:45:34;;;;;;;64.18;51.70;;;;;;;;;;10170025;28;20531;-72
2024/01/17 01:50:27;;;;;;;68.18;52.42;;;;;;;;;;10183008;28;20070;-73
2024/01/17 01:55:19;;;;;;;57.58;46.35;;;;;;;;;;10181552;28;20374;-74
2024/01/17 02:00:12;;;;;;;63.40;51.40;;;;;;;;;;10182728;28;20467;-74
2024/01/17 02:05:04;;;;;;;63.85;50.92;;;;;;;;;;10186003;28;20048;-74
2024/01/17 02:09:56;;;;;;;65.65;50.92;;;;;;;;;;10190205;28;20447;-73
2024/01/17 02:14:48;;;;;;;66.90;48.65;;;;;;;;;;10189997;28;20134;-73
2024/01/17 02:19:41;;;;;;;63.65;50.22;;;;;;;;;;10196701;28;20059;-74
2024/01/17 02:24:33;;;;;;;60.33;48.75;;;;;;;;;;10189801;28;20470;-73
2024/01/17 02:29:34;;;;;;;64.90;51.35;;;;;;;;;;10188841;28;20539;-73
2024/01/17 02:34:26;;;;;;;63.83;50.17;;;;;;;;;;10176556;28;20085;-74
2024/01/17 02:39:17;;;;;;;66.60;50.30;;;;;;;;;;10189325;28;20052;-73
2024/01/17 02:44:09;;;;;;;62.60;49.60;;;;;;;;;;10176301;28;20467;-74
2024/01/17 02:49:01;;;;;;;69.25;51.00;;;;;;;;;;10189079;28;20139;-74
2024/01/17 02:53:53;;;;;;;62.05;49.42;;;;;;;;;;10188854;28;20044;-74
2024/01/17 02:58:45;;;;;;;67.78;53.63;;;;;;;;;;10184178;28;20128;-74
2024/01/17 03:03:37;;;;;;;69.63;52.03;;;;;;;;;;10158467;28;20046;-74
2024/01/17 03:08:29;;;;;;;65.32;52.13;;;;;;;;;;10154790;28;20123;-74
2024/01/17 03:13:21;;;;;;;69.13;53.95;;;;;;;;;;10151986;28;20050;-74
2024/01/17 03:18:13;;;;;;;60.42;48.22;;;;;;;;;;10151935;28;20484;-74
2024/01/17 03:23:06;;;;;;;74.00;55.22;;;;;;;;;;10152388;28;20471;-73
2024/01/17 03:27:58;;;;;;;66.75;52.67;;;;;;;;;;10149060;28;20417;-74
2024/01/17 03:32:50;;;;;;;64.35;50.25;;;;;;;;;;10157687;28;20048;-74
2024/01/17 03:37:42;;;;;;;63.10;53.50;;;;;;;;;;10149088;28;20041;-74
2024/01/17 03:42:34;;;;;;;64.70;52.13;;;;;;;;;;10149697;28;20052;-73
2024/01/17 03:47:26;;;;;;;63.00;51.60;;;;;;;;;;10147976;28;20044;-74
2024/01/17 03:52:19;;;;;;;63.30;49.92;;;;;;;;;;10157716;28;20066;-74
2024/01/17 03:57:11;;;;;;;63.25;51.35;;;;;;;;;;10175347;28;20040;-74
2024/01/17 04:02:03;;;;;;;64.93;52.72;;;;;;;;;;10184892;28;20089;-74
2024/01/17 04:06:55;;;;;;;61.08;51.22;;;;;;;;;;10185973;28;20379;-74
2024/01/17 04:11:47;;;;;;;60.67;50.35;;;;;;;;;;10186019;28;20051;-74
2024/01/17 04:16:39;;;;;;;61.55;49.40;;;;;;;;;;10185682;28;20150;-74
2024/01/17 04:21:31;;;;;;;58.00;48.65;;;;;;;;;;10175645;28;20075;-73
2024/01/17 04:26:25;;;;;;;67.07;51.53;;;;;;;;;;10146330;28;20426;-74
2024/01/17 04:31:24;;;;;;;56.92;47.70;;;;;;;;;;10153318;28;20612;-74
2024/01/17 04:36:16;;;;;;;;;;;;;;;;;;10148929;28;20067;-74
2024/01/17 04:41:10;;;;;;;65.22;50.08;;;;;;;;;;10159819;28;19920;-74
2024/01/17 04:46:01;;;;;;;61.67;49.92;;;;;;;;;;10149089;28;20106;-74
2024/01/17 04:50:58;;;;;;;58.92;49.80;;;;;;;;;;10152387;28;20155;-73
2024/01/17 04:55:50;;;;;;;63.28;50.20;;;;;;;;;;10146168;28;20053;-74
2024/01/17 05:00:45;;;;;;;60.30;50.05;;;;;;;;;;10148870;28;20113;-73
2024/01/17 05:05:37;;;;;;;67.78;50.20;;;;;;;;;;10150042;28;20637;-74
2024/01/17 05:10:30;;;;;;;69.40;52.70;;;;;;;;;;10147620;28;20532;-74
2024/01/17 05:15:21;;;;;;;67.13;53.28;;;;;;;;;;10147204;28;20127;-74
2024/01/17 05:20:16;;;;;;;67.10;52.63;;;;;;;;;;10151928;28;20086;-74
2024/01/17 05:25:11;;;;;;;67.00;49.92;;;;;;;;;;10154401;28;20450;-74
2024/01/17 05:30:10;;;;;;;65.55;52.55;;;;;;;;;;10148323;28;20059;-73
2024/01/17 05:35:08;;;;;;;67.65;51.60;;;;;;;;;;10148710;28;20602;-74
2024/01/17 05:39:59;;;;;;;71.72;55.28;;;;;;;;;;10151933;28;20090;-73
2024/01/17 05:44:51;;;;;;;72.30;55.63;;;;;;;;;;10156486;28;20047;-74
2024/01/17 05:49:51;;;;;;;69.63;53.45;;;;;;;;;;10154610;28;20115;-73
2024/01/17 05:54:52;;;;;;;65.97;53.35;;;;;;;;;;10153951;28;20036;-73
2024/01/17 05:59:44;;;;;;;67.32;50.15;;;;;;;;;;10153963;28;20467;-74
2024/01/17 06:04:37;;;;;;;71.82;53.00;;;;;;;;;;10153940;28;20112;-73
2024/01/17 06:09:29;;;;;;;64.80;50.92;;;;;;;;;;10153068;28;20127;-73
2024/01/17 06:14:21;;;;;;;68.47;54.25;;;;;;;;;;10153372;28;20492;-73
2024/01/17 06:19:15;;;;;;;78.75;53.42;;;;;;;;;;10152988;28;20052;-73
2024/01/17 06:24:07;;;;;;;73.47;54.63;;;;;;;;;;10176607;28;20048;-73
2024/01/17 06:28:59;;;;;;;74.60;53.85;;;;;;;;;;10190378;28;20417;-73
2024/01/17 06:33:51;;;;;;;74.78;56.63;;;;;;;;;;10191000;28;20856;-73
2024/01/17 06:38:44;;;;;;;77.68;53.10;;;;;;;;;;10190575;28;20067;-72
2024/01/17 06:43:36;;;;;;;69.45;54.10;;;;;;;;;;10185990;28;20122;-79
2024/01/17 06:48:28;;;;;;;77.10;53.15;;;;;;;;;;10185096;28;20055;-79
2024/01/17 06:53:21;;;;;;;73.55;54.88;;;;;;;;;;10187818;28;20044;-80
2024/01/17 06:58:13;;;;;;;77.13;56.00;;;;;;;;;;10187297;28;20044;-82
2024/01/17 07:03:05;;;;;;;80.65;57.90;;;;;;;;;;10176580;28;20064;-82
2024/01/17 07:07:57;;;;;;;90.40;60.47;;;;;;;;;;10148064;28;20375;-83
2024/01/17 07:12:50;;;;;;;79.93;60.40;;;;;;;;;;10150395;28;20048;-81
2024/01/17 07:17:42;;;;;;;79.45;57.33;;;;;;;;;;10148681;28;20349;-80
2024/01/17 07:22:41;;;;;;;84.05;64.13;;;;;;;;;;10150084;28;20044;-78
2024/01/17 07:27:33;;;;;;;78.87;59.13;;;;;;;;;;10148852;28;20536;-78
2024/01/17 07:32:24;;;;;;;88.85;63.22;;;;;;;;;;10146549;28;20149;-77
2024/01/17 07:37:16;;;;;;;87.60;60.30;;;;;;;;;;10144194;28;20498;-77
2024/01/17 07:42:11;;;;;;;83.03;56.58;;;;;;;;;;10143901;28;20184;-77
2024/01/17 07:47:03;;;;;;;81.85;61.00;;;;;;;;;;10143966;28;20053;-78
2024/01/17 07:51:55;;;;;;;93.25;60.25;;;;;;;;;;10145850;28;20441;-77
2024/01/17 07:56:47;;;;;;;86.63;60.40;;;;;;;;;;10146436;28;20041;-77
2024/01/17 08:01:39;;;;;;;95.75;64.88;;;;;;;;;;10155309;28;20044;-76
2024/01/17 08:06:31;;;;;;;85.22;61.83;;;;;;;;;;10154953;28;20054;-76
2024/01/17 08:11:23;;;;;;;92.25;66.80;;;;;;;;;;10146801;28;20069;-77
2024/01/17 08:16:15;;;;;;;87.82;63.88;;;;;;;;;;10154511;28;20097;-77
2024/01/17 08:21:06;;;;;;;92.63;65.35;;;;;;;;;;10145715;28;20080;-75
2024/01/17 08:25:58;;;;;;;94.22;69.25;;;;;;;;;;10142776;28;20080;-75
2024/01/17 08:30:50;;;;;;;105.47;67.72;;;;;;;;;;10140003;28;20427;-75
2024/01/17 08:35:42;;;;;;;86.35;60.30;;;;;;;;;;10143962;28;20139;-74
2024/01/17 08:40:36;;;;;;;99.07;64.78;;;;;;;;;;10143008;28;20463;-75
2024/01/17 08:45:28;;;;;;;89.75;65.00;;;;;;;;;;10143927;28;20040;-75
2024/01/17 08:50:20;;;;;;;94.70;63.50;;;;;;;;;;10144701;28;20525;-75
2024/01/17 08:55:12;;;;;;;96.53;63.15;;;;;;;;;;10144682;28;20072;-75
2024/01/17 09:00:08;;;;;;;89.60;66.05;;;;;;;;;;10144801;28;20111;-75
2024/01/17 09:05:00;;;;;;;92.18;66.82;;;;;;;;;;10145602;28;20104;-75
2024/01/17 09:09:52;;;;;;;95.78;65.00;;;;;;;;;;10143647;28;20080;-77
2024/01/17 09:14:44;;;;;;;97.95;68.70;;;;;;;;;;10143258;28;20045;-75
2024/01/17 09:19:36;;;;;;;92.82;66.95;;;;;;;;;;10143357;28;20040;-74
2024/01/17 09:24:28;;;;;;;96.50;62.67;;;;;;;;;;10152161;28;20439;-75
2024/01/17 09:29:20;;;;;;;87.07;65.07;;;;;;;;;;10142556;28;20037;-75
2024/01/17 09:34:12;;;;;;;93.78;70.20;;;;;;;;;;10146088;28;20044;-75
2024/01/17 09:39:04;;;;;;;97.45;68.10;;;;;;;;;;10150216;28;20083;-75
2024/01/17 09:43:57;;;;;;;92.47;63.60;;;;;;;;;;10144169;28;20403;-75
2024/01/17 09:48:49;;;;;;;91.43;65.75;;;;;;;;;;10143263;28;20045;-75
2024/01/17 09:53:45;;;;;;;95.32;65.95;;;;;;;;;;10140430;28;20102;-76
2024/01/17 09:58:39;;;;;;;92.70;64.25;;;;;;;;;;10142085;28;20193;-76
2024/01/17 10:03:34;;;;;;;92.80;66.05;;;;;;;;;;10139084;28;20048;-75
2024/01/17 10:08:27;;;;;;;97.68;64.50;;;;;;;;;;10142345;28;20033;-73
2024/01/17 10:13:19;;;;;;;90.30;64.50;;;;;;;;;;10140325;28;20200;-75
2024/01/17 10:18:12;;;;;;;93.10;61.67;;;;;;;;;;10142241;28;20106;-74
2024/01/17 10:23:07;;;;;;;93.53;67.18;;;;;;;;;;10141536;28;20045;-74
2024/01/17 10:27:59;;;;;;;89.20;65.25;;;;;;;;;;10146152;28;20500;-73
2024/01/17 10:32:51;;;;;;;93.45;65.38;;;;;;;;;;10148224;28;20052;-74
2024/01/17 10:37:43;;;;;;;95.75;67.47;;;;;;;;;;10151132;28;20044;-73
2024/01/17 10:42:35;;;;;;;96.57;67.30;;;;;;;;;;10148333;28;20036;-73
2024/01/17 10:47:27;;;;;;;105.65;72.05;;;;;;;;;;10148733;28;20139;-73
2024/01/17 10:52:20;;;;;;;106.03;66.85;;;;;;;;;;10150193;28;20079;-73
2024/01/17 10:57:20;;;;;;;107.55;72.97;;;;;;;;;;10149072;28;20044;-73
2024/01/17 11:02:18;;;;;;;116.10;78.25;;;;;;;;;;10177990;28;20043;-73
2024/01/17 11:07:10;;;;;;;106.22;73.18;;;;;;;;;;10176698;28;20040;-73
2024/01/17 11:12:03;;;;;;;98.80;68.88;;;;;;;;;;10155733;28;20044;-74
2024/01/17 11:16:57;;;;;;;94.07;66.80;;;;;;;;;;10150892;28;20056;-73
2024/01/17 11:21:50;;;;;;;95.40;66.90;;;;;;;;;;10146603;28;20043;-74
2024/01/17 11:26:48;;;;;;;91.78;65.13;;;;;;;;;;10145893;28;20051;-74
2024/01/17 11:32:07;;;;;;;91.95;63.13;;;;;;;;;;10149228;28;20076;-73
2024/01/17 11:36:59;;;;;;;86.60;63.43;;;;;;;;;;10147894;28;20032;-73
2024/01/17 11:41:51;;;;;;;81.45;57.63;;;;;;;;;;10147580;28;20139;-73
2024/01/17 11:46:51;;;;;;;79.70;58.95;;;;;;;;;;10144051;28;20375;-73
2024/01/17 11:51:44;;;;;;;67.63;54.90;;;;;;;;;;10147020;28;20056;-73
2024/01/17 11:56:36;;;;;;;71.03;53.95;;;;;;;;;;10144971;28;20494;-74
2024/01/17 12:01:31;;;;;;;76.82;55.35;;;;;;;;;;10146000;28;20091;-73
2024/01/17 12:06:23;;;;;;;73.55;51.92;;;;;;;;;;10155217;28;20040;-74
2024/01/17 12:11:15;;;;;;;70.95;51.97;;;;;;;;;;10146298;28;20048;-75
2024/01/17 12:16:07;;;;;;;72.40;52.20;;;;;;;;;;10145435;28;20086;-77
2024/01/17 12:21:03;;;;;;;65.72;49.13;;;;;;;;;;10145936;28;20045;-74
2024/01/17 12:25:55;;;;;;;56.78;44.83;;;;;;;;;;10143786;28;20053;-76
2024/01/17 12:31:04;;;;;;;63.83;47.58;;;;;;;;;;10147183;28;20915;-75
2024/01/17 12:35:57;;;;;;;59.47;44.63;;;;;;;;;;10149581;28;20052;-77
2024/01/17 12:40:50;;;;;;;54.08;43.90;;;;;;;;;;10144242;28;20139;-76
2024/01/17 12:45:42;;;;;;;69.20;47.35;;;;;;;;;;10143427;28;20096;-77
2024/01/17 12:50:33;;;;;;;61.22;48.83;;;;;;;;;;10144304;28;20094;-76
2024/01/17 12:55:29;;;;;;;58.65;45.50;;;;;;;;;;10143682;28;20105;-76
2024/01/17 13:00:24;;;;;;;63.33;48.20;;;;;;;;;;10147561;28;20152;-76
2024/01/17 13:05:24;;;;;;;63.92;48.70;;;;;;;;;;10149610;28;20106;-77
2024/01/17 13:10:17;;;;;;;81.53;53.17;;;;;;;;;;10144651;28;20048;-77
2024/01/17 13:15:10;;;;;;;67.50;48.75;;;;;;;;;;10149264;28;20811;-77
2024/01/17 13:20:11;;;;;;;77.50;54.20;;;;;;;;;;10143850;28;20135;-77
2024/01/17 13:25:03;;;;;;;62.15;47.00;;;;;;;;;;10142020;28;20044;-77
2024/01/17 13:29:56;;;;;;;56.80;42.97;;;;;;;;;;10151133;28;20091;-74
2024/01/17 13:34:49;;;;;;;57.67;45.08;;;;;;;;;;10155177;28;20052;-76
2024/01/17 13:39:41;;;;;;;60.10;45.20;;;;;;;;;;10155490;28;20139;-77
2024/01/17 13:44:33;;;;;;;57.75;45.80;;;;;;;;;;10142623;28;20045;-76
2024/01/17 13:49:25;;;;;;;54.17;42.92;;;;;;;;;;10148282;28;20040;-76
2024/01/17 13:54:18;;;;;;;57.53;43.97;;;;;;;;;;10156789;28;20141;-76
2024/01/17 13:59:11;;;;;;;66.75;49.67;;;;;;;;;;10158358;28;20051;-76
2024/01/17 14:04:03;;;;;;;55.95;42.63;;;;;;;;;;10157561;28;20371;-76
2024/01/17 14:08:55;;;;;;;57.53;43.63;;;;;;;;;;10150785;28;20438;-76
2024/01/17 14:13:47;;;;;;;57.53;44.92;;;;;;;;;;10172357;28;20346;-77
2024/01/17 14:18:39;;;;;;;55.42;42.85;;;;;;;;;;10159274;28;20358;-76
2024/01/17 14:23:32;;;;;;;53.38;43.55;;;;;;;;;;10149885;28;20067;-77
2024/01/17 14:28:24;;;;;;;50.72;41.47;;;;;;;;;;10161635;28;20156;-76
2024/01/17 14:33:19;;;;;;;48.47;39.42;;;;;;;;;;10150598;28;20052;-76
2024/01/17 14:38:12;;;;;;;54.63;41.42;;;;;;;;;;10162467;28;20045;-76
2024/01/17 14:43:04;;;;;;;61.17;45.95;;;;;;;;;;10174551;28;20359;-77
2024/01/17 14:47:56;;;;;;;60.85;44.80;;;;;;;;;;10158793;28;20053;-76
2024/01/17 14:52:48;;;;;;;59.63;48.22;;;;;;;;;;10166350;28;20040;-76
2024/01/17 14:57:40;;;;;;;54.88;43.55;;;;;;;;;;10158651;28;20179;-76
2024/01/17 15:02:33;;;;;;;55.88;42.88;;;;;;;;;;10172136;28;20038;-76
2024/01/17 15:07:28;;;;;;;58.53;44.78;;;;;;;;;;10161483;28;20036;-77
2024/01/17 15:12:21;;;;;;;60.50;45.97;;;;;;;;;;10161539;28;20179;-76
2024/01/17 15:17:13;;;;;;;55.25;43.35;;;;;;;;;;10170849;28;20033;-76
2024/01/17 15:22:05;;;;;;;58.80;43.90;;;;;;;;;;10147065;28;20056;-76
2024/01/17 15:26:58;;;;;;;52.50;40.70;;;;;;;;;;10155135;28;20450;-75
2024/01/17 15:31:50;;;;;;;55.97;44.55;;;;;;;;;;10162172;28;20121;-76
2024/01/17 15:36:42;;;;;;;57.35;43.70;;;;;;;;;;10148681;28;20056;-76
2024/01/17 15:41:36;;;;;;;54.28;43.65;;;;;;;;;;10150663;28;20139;-76
2024/01/17 15:46:29;;;;;;;56.00;42.55;;;;;;;;;;10157419;28;20088;-77
2024/01/17 15:51:22;;;;;;;62.55;47.15;;;;;;;;;;10155988;28;20135;-76
2024/01/17 15:56:14;;;;;;;60.75;47.47;;;;;;;;;;10157701;28;20052;-76
2024/01/17 16:01:07;;;;;;;62.25;44.72;;;;;;;;;;10158866;28;20044;-77
2024/01/17 16:06:01;;;;;;;55.60;44.22;;;;;;;;;;10149886;28;20040;-77
2024/01/17 16:10:53;;;;;;;52.95;42.55;;;;;;;;;;10146222;28;20116;-77
2024/01/17 16:15:46;;;;;;;51.65;43.40;;;;;;;;;;10154801;28;20113;-75
2024/01/17 16:20:38;;;;;;;58.50;47.85;;;;;;;;;;10148636;28;20037;-76
2024/01/17 16:25:30;;;;;;;72.22;54.97;;;;;;;;;;10151696;28;20466;-76
2024/01/17 16:30:23;;;;;;;64.55;50.47;;;;;;;;;;10169114;28;20816;-75
2024/01/17 16:35:15;;;;;;;83.47;66.47;;;;;;;;;;10184905;28;20343;-76
2024/01/17 16:40:08;;;;;;;59.67;49.22;;;;;;;;;;10171208;28;20052;-76
2024/01/17 16:44:59;;;;;;;68.75;53.05;;;;;;;;;;10145004;28;20060;-76
2024/01/17 16:49:53;;;;;;;70.70;54.65;;;;;;;;;;10148136;28;20036;-76
2024/01/17 16:54:45;;;;;;;68.85;53.13;;;;;;;;;;10181405;28;20130;-69
2024/01/17 16:59:37;;;;;;;58.80;46.33;;;;;;;;;;10179576;28;20043;-71
2024/01/17 17:04:29;;;;;;;58.05;45.00;;;;;;;;;;10169192;28;20076;-72
2024/01/17 17:09:21;;;;;;;64.50;52.53;;;;;;;;;;10171970;28;20153;-71
2024/01/17 17:14:13;;;;;;;71.50;52.05;;;;;;;;;;10166305;28;20052;-72
2024/01/17 17:19:05;;;;;;;56.38;44.33;;;;;;;;;;10150413;28;20036;-71
2024/01/17 17:23:57;;;;;;;60.30;45.70;;;;;;;;;;10166830;28;20052;-71
2024/01/17 17:28:49;;;;;;;58.00;44.30;;;;;;;;;;10161148;28;20048;-71
2024/01/17 17:33:41;;;;;;;67.15;46.80;;;;;;;;;;10182738;28;20097;-70
2024/01/17 17:38:33;;;;;;;53.28;44.22;;;;;;;;;;10186853;28;20082;-70
2024/01/17 17:43:25;;;;;;;61.03;46.42;;;;;;;;;;10173710;28;20054;-72
2024/01/17 17:48:20;;;;;;;57.38;46.53;;;;;;;;;;10168468;28;20456;-71
2024/01/17 17:53:12;;;;;;;60.70;47.55;;;;;;;;;;10156728;28;20375;-71
2024/01/17 17:58:04;;;;;;;69.35;50.55;;;;;;;;;;10174844;28;20051;-71
2024/01/17 18:02:56;;;;;;;61.33;48.42;;;;;;;;;;10163225;28;20040;-70
2024/01/17 18:07:50;;;;;;;62.50;48.30;;;;;;;;;;10166251;28;20459;-71
2024/01/17 18:12:42;;;;;;;63.10;48.63;;;;;;;;;;10157024;28;20155;-71
2024/01/17 18:17:34;;;;;;;67.07;55.92;;;;;;;;;;10164818;28;20036;-71
2024/01/17 18:22:26;;;;;;;72.35;53.47;;;;;;;;;;10165099;28;20044;-70
2024/01/17 18:27:17;;;;;;;72.80;53.67;;;;;;;;;;10171747;28;20486;-70
2024/01/17 18:32:09;;;;;;;71.50;55.33;;;;;;;;;;10161302;28;20036;-71
2024/01/17 18:37:04;;;;;;;69.28;51.78;;;;;;;;;;10158825;28;20063;-71
2024/01/17 18:41:56;;;;;;;74.35;56.15;;;;;;;;;;10155307;28;20420;-70
2024/01/17 18:46:48;;;;;;;87.53;61.13;;;;;;;;;;10146620;28;20056;-71
2024/01/17 18:51:40;;;;;;;66.65;50.50;;;;;;;;;;10149538;28;20170;-71
2024/01/17 18:56:32;;;;;;;75.40;55.72;;;;;;;;;;10165804;28;20423;-70
2024/01/17 19:01:26;;;;;;;70.82;52.50;;;;;;;;;;10180732;28;20036;-70
2024/01/17 19:06:20;;;;;;;68.68;56.30;;;;;;;;;;10138969;28;20043;-70
2024/01/17 19:11:12;;;;;;;64.03;48.92;;;;;;;;;;10150978;28;20470;-71
2024/01/17 19:16:04;;;;;;;71.20;54.50;;;;;;;;;;10155018;28;20044;-71
2024/01/17 19:20:57;;;;;;;69.85;57.42;;;;;;;;;;10172419;28;20526;-71
2024/01/17 19:25:49;;;;;;;70.18;54.72;;;;;;;;;;10171090;28;20127;-71
2024/01/17 19:30:40;;;;;;;66.18;52.60;;;;;;;;;;10160817;28;20044;-70
2024/01/17 19:35:33;;;;;;;69.55;58.03;;;;;;;;;;10145106;28;20056;-71
2024/01/17 19:40:25;;;;;;;60.63;46.25;;;;;;;;;;10150659;28;20044;-70
2024/01/17 19:45:16;;;;;;;60.53;47.10;;;;;;;;;;10144488;28;20382;-70
2024/01/17 19:50:08;;;;;;;74.05;50.88;;;;;;;;;;10148301;28;20421;-70
2024/01/17 19:55:00;;;;;;;65.10;50.10;;;;;;;;;;10156039;28;20037;-72
2024/01/17 19:59:52;;;;;;;67.25;49.40;;;;;;;;;;10146811;28;20041;-71
2024/01/17 20:04:44;;;;;;;63.08;48.00;;;;;;;;;;10152839;28;20037;-70
2024/01/17 20:09:36;;;;;;;63.28;51.63;;;;;;;;;;10151009;28;20041;-71
2024/01/17 20:14:28;;;;;;;68.65;50.97;;;;;;;;;;10167188;28;20132;-71
2024/01/17 20:19:20;;;;;;;68.75;48.50;;;;;;;;;;10178776;28;20431;-71
2024/01/17 20:24:12;;;;;;;66.50;51.10;;;;;;;;;;10184864;28;20044;-72
2024/01/17 20:29:04;;;;;;;68.50;50.00;;;;;;;;;;10185504;28;20070;-72
2024/01/17 20:33:57;;;;;;;69.22;51.28;;;;;;;;;;10183438;28;20097;-73
2024/01/17 20:38:49;;;;;;;66.95;51.65;;;;;;;;;;10184983;28;20047;-71
2024/01/17 20:43:45;;;;;;;74.88;56.20;;;;;;;;;;10185742;28;20079;-72
2024/01/17 20:48:37;;;;;;;70.72;52.17;;;;;;;;;;10183991;28;20043;-72
2024/01/17 20:53:35;;;;;;;70.03;52.53;;;;;;;;;;10183648;28;20040;-73
2024/01/17 20:58:27;;;;;;;65.95;51.25;;;;;;;;;;10170252;28;20044;-72
2024/01/17 21:03:19;;;;;;;71.05;52.55;;;;;;;;;;10177533;28;20371;-72
2024/01/17 21:08:11;;;;;;;76.90;58.95;;;;;;;;;;10174086;28;20040;-73
2024/01/17 21:13:03;;;;;;;68.80;51.63;;;;;;;;;;10176116;28;20044;-72
2024/01/17 21:17:54;;;;;;;74.78;53.53;;;;;;;;;;10183083;28;20355;-71
2024/01/17 21:22:47;;;;;;;73.47;53.10;;;;;;;;;;10176708;28;20102;-71
2024/01/17 21:27:39;;;;;;;60.92;49.78;;;;;;;;;;10162576;28;20052;-71
2024/01/17 21:32:31;;;;;;;66.93;52.42;;;;;;;;;;10177474;28;20115;-72
2024/01/17 21:37:23;;;;;;;64.00;48.50;;;;;;;;;;10184558;28;20044;-72
2024/01/17 21:42:14;;;;;;;63.38;52.85;;;;;;;;;;10182076;28;20075;-71
2024/01/17 21:47:06;;;;;;;62.17;47.75;;;;;;;;;;10178971;28;20055;-72
2024/01/17 21:51:59;;;;;;;67.30;50.42;;;;;;;;;;10156144;28;20494;-72
2024/01/17 21:56:51;;;;;;;61.67;46.47;;;;;;;;;;10180507;28;20365;-72
2024/01/17 22:01:43;;;;;;;77.43;55.85;;;;;;;;;;10180602;28;20048;-72
2024/01/17 22:06:35;;;;;;;70.80;52.22;;;;;;;;;;10182350;28;20044;-71
2024/01/17 22:11:27;;;;;;;61.35;47.35;;;;;;;;;;10182344;28;20052;-72
2024/01/17 22:16:19;;;;;;;66.45;51.03;;;;;;;;;;10182824;28;20040;-72
2024/01/17 22:21:11;;;;;;;62.42;48.33;;;;;;;;;;10165376;28;20048;-72
2024/01/17 22:26:03;;;;;;;64.45;50.00;;;;;;;;;;10188693;28;20500;-72
2024/01/17 22:30:55;;;;;;;59.83;44.25;;;;;;;;;;10171207;28;20044;-72
2024/01/17 22:35:48;;;;;;;61.60;46.97;;;;;;;;;;10189664;28;20073;-72
2024/01/17 22:40:41;;;;;;;65.78;46.58;;;;;;;;;;10189477;28;20050;-72
2024/01/17 22:45:32;;;;;;;62.13;47.05;;;;;;;;;;10189326;28;20059;-72
2024/01/17 22:50:24;;;;;;;56.40;44.25;;;;;;;;;;10171673;28;20120;-71
2024/01/17 22:55:16;;;;;;;59.38;49.25;;;;;;;;;;10188689;28;20393;-71
2024/01/17 23:00:20;;;;;;;60.63;46.10;;;;;;;;;;10188647;28;20048;-71
2024/01/17 23:05:12;;;;;;;60.90;46.83;;;;;;;;;;10188389;28;20044;-71
2024/01/17 23:10:08;;;;;;;63.75;48.13;;;;;;;;;;10187592;28;20047;-72
2024/01/17 23:15:00;;;;;;;68.47;49.85;;;;;;;;;;10188573;28;20063;-72
2024/01/17 23:19:52;;;;;;;59.50;46.30;;;;;;;;;;10186519;28;20040;-71
2024/01/17 23:24:44;;;;;;;50.65;41.88;;;;;;;;;;10188418;28;20059;-72
2024/01/17 23:29:36;;;;;;;56.92;43.92;;;;;;;;;;10188725;28;20068;-72
2024/01/17 23:34:28;;;;;;;57.25;44.50;;;;;;;;;;10187489;28;20109;-72
2024/01/17 23:39:20;;;;;;;60.17;44.45;;;;;;;;;;10187919;28;20366;-72
2024/01/17 23:44:13;;;;;;;61.80;46.83;;;;;;;;;;10186948;28;20105;-72
2024/01/17 23:49:05;;;;;;;52.10;41.90;;;;;;;;;;10186926;28;20123;-72
2024/01/17 23:53:56;;;;;;;56.90;43.13;;;;;;;;;;10186673;28;20044;-72
2024/01/17 23:58:48;;;;;;;48.78;39.47;;;;;;;;;;10187385;28;20044;-72
